Pagrindinis puslapis
METAR-TAF:

METAR-TAF

Oro uostai :

Kobicha, Bolivija

platuma: 11-02S, ilguma: 068-47W, Aukštis: 235 m

Dabartinis oras

Ataskaita buvo paskelbta 3 valandos ir 2 minutes, ne 23:00 UTC
Vėjas 4 kt iš Pietų/Pietryčių
Temperatūra 27°C
Drėgmė 84%
Slėgis 1012 hPa
Matomumas 10 km arba daugiau
Mažai debesys ne aukštis 2700 ft

METAR: SLCO 162300Z 16004KT 9999 FEW027 27/24 Q1012

Laikas: 22:02 (02:02 UTC)

Prognozė

Ataskaita buvo paskelbta 4 valandos ir 2 minutes, ne 22:00 UTC
Prognozė galioja nuo 17 metu 00 UTC su 17 metu 24 UTC
Vėjas 5 kt iš Pietų/Pietryčių
Matomumas 10 km arba daugiau
Su prošvaistėmis ne aukštis 1300 ft
Tapsmas
nuo 17 metu 13 UTC su 17 metu 15 UTC
Mažai debesys ne aukštis 2000 ft

TAF: SLCO 162200Z 1700/1724 15005KT 9999 BKN013 TX29/1720Z TN20/1710Z BECMG 1713/1715 FEW020

Orai ataskaitas ir orų prognozės (METAR, TAF).

turimą stotys yra geltonos ir raudonos taškus žemėlapyje.

Perkelti pele per norėdami pamatyti stoties vardą.

Tada spustelėkite, norėdami matyti oro stebėjimo ir prognozės.

Norėdami pakeisti žemėlapį: spustelėkite ant žalios mygtukų su juodo kryžiaus žemyn,; žalią mygtuką su brūkšneliu, jei norite nutolinti; arba žalių rodyklių gretimoms žemėlapius.


METAR-TAF: